Time;durP1;ratioP1;P1;durP2;ratioP2;P2;SDS_P1;SDS_P2;PMS_P1;PMS_P2;Temp;Humidity;BMP_temperature;BMP_pressure;BME280_temperature;BME280_humidity;BME280_pressure;Samples;Min_cycle;Max_cycle;Signal;HPM_P1;HPM_P2
2022/06/15 00:02:04;;;;;;;8.02;3.70;;;25.00;47.00;;;;;;7371496;19;20414;-77
2022/06/15 00:04:36;;;;;;;5.78;3.40;;;24.90;47.30;;;;;;7370995;19;20027;-77
2022/06/15 00:07:05;;;;;;;5.50;3.25;;;24.90;47.40;;;;;;7371386;19;20324;-77
2022/06/15 00:09:38;;;;;;;9.95;3.85;;;24.80;47.50;;;;;;7368462;19;20106;-77
2022/06/15 00:12:08;;;;;;;7.45;3.35;;;24.80;47.40;;;;;;7393179;19;20030;-77
2022/06/15 00:14:37;;;;;;;9.90;3.72;;;24.70;47.50;;;;;;7371452;19;20593;-76
2022/06/15 00:17:06;;;;;;;7.40;3.70;;;24.70;47.30;;;;;;7368831;19;20364;-76
2022/06/15 00:19:38;;;;;;;10.15;3.70;;;24.70;47.30;;;;;;7369376;19;20028;-76
2022/06/15 00:22:07;;;;;;;9.93;3.72;;;24.60;47.70;;;;;;7368155;19;20022;-76
2022/06/15 00:24:36;;;;;;;7.45;3.20;;;24.60;47.50;;;;;;7368446;19;20022;-76
2022/06/15 00:27:05;;;;;;;6.22;3.42;;;24.50;47.70;;;;;;7392178;19;20014;-76
2022/06/15 00:29:37;;;;;;;7.30;3.35;;;24.50;47.60;;;;;;7369124;19;20021;-76
2022/06/15 00:32:07;;;;;;;12.02;3.90;;;24.40;47.50;;;;;;7369462;19;20014;-76
2022/06/15 00:34:38;;;;;;;3.83;3.00;;;24.40;47.90;;;;;;7369408;19;20048;-77
2022/06/15 00:37:07;;;;;;;7.03;3.97;;;24.40;47.90;;;;;;7365461;19;20025;-77
2022/06/15 00:39:38;;;;;;;9.55;3.90;;;24.40;48.10;;;;;;7368890;19;20045;-77
2022/06/15 00:42:08;;;;;;;9.25;3.88;;;24.40;48.30;;;;;;7391173;19;20446;-76
2022/06/15 00:44:39;;;;;;;8.80;3.67;;;24.40;48.40;;;;;;7369508;19;20046;-77
2022/06/15 00:47:12;;;;;;;;;;;24.30;48.40;;;;;;7371319;19;20105;-76
2022/06/15 00:49:48;;;;;;;6.60;3.90;;;24.30;48.40;;;;;;7369808;19;20302;-76
2022/06/15 00:52:37;;;;;;;5.05;3.78;;;24.30;48.50;;;;;;7367988;19;20006;-77
2022/06/15 00:55:12;;;;;;;5.03;3.40;;;24.30;48.70;;;;;;7369775;19;20474;-77
2022/06/15 00:57:41;;;;;;;7.28;3.65;;;24.30;48.40;;;;;;7369474;19;20022;-77
2022/06/15 01:00:12;;;;;;;9.23;3.42;;;24.30;48.30;;;;;;7389489;19;20023;-77
2022/06/15 01:02:43;;;;;;;5.10;3.70;;;24.30;48.40;;;;;;7370486;19;20015;-77
2022/06/15 01:05:20;;;;;;;9.25;3.80;;;24.30;48.20;;;;;;7368686;19;20018;-78
2022/06/15 01:08:13;;;;;;;11.82;3.40;;;24.20;48.00;;;;;;7370021;19;20071;-77
2022/06/15 01:11:05;;;;;;;8.23;3.33;;;24.20;48.30;;;;;;7368486;19;20019;-77
2022/06/15 01:13:58;;;;;;;7.80;3.42;;;24.10;48.40;;;;;;7368950;19;20019;-77
2022/06/15 01:16:37;;;;;;;8.98;3.40;;;24.10;48.20;;;;;;7367382;19;20018;-77
2022/06/15 01:19:22;;;;;;;6.93;3.47;;;24.10;48.40;;;;;;7366196;19;20018;-77
2022/06/15 01:22:01;;;;;;;7.20;3.40;;;24.10;48.30;;;;;;7368733;19;20014;-77
2022/06/15 01:24:52;;;;;;;6.18;3.55;;;24.10;48.40;;;;;;7388920;19;20702;-77
2022/06/15 01:27:40;;;;;;;8.93;3.78;;;24.00;48.40;;;;;;7369909;19;20033;-78
2022/06/15 01:30:23;;;;;;;7.57;3.47;;;24.00;48.40;;;;;;7364626;19;20074;-77
2022/06/15 01:33:11;;;;;;;7.25;3.40;;;23.90;48.50;;;;;;7367807;19;20047;-77
2022/06/15 01:35:49;;;;;;;7.95;3.70;;;23.90;48.80;;;;;;7366958;19;20014;-77
2022/06/15 01:38:26;;;;;;;5.43;3.42;;;23.90;48.90;;;;;;7369214;19;20010;-77
2022/06/15 01:41:03;;;;;;;11.75;4.30;;;23.90;49.20;;;;;;7368732;19;20014;-77
2022/06/15 01:43:36;;;;;;;6.55;3.55;;;23.80;49.30;;;;;;7366928;19;20079;-77
2022/06/15 01:46:08;;;;;;;5.10;3.30;;;23.80;49.40;;;;;;7368588;19;20802;-77
2022/06/15 01:48:39;;;;;;;8.02;4.03;;;23.80;49.10;;;;;;7368270;19;20022;-77
2022/06/15 01:51:14;;;;;;;11.10;6.05;;;23.80;49.00;;;;;;7389318;19;20022;-77
2022/06/15 01:53:49;;;;;;;8.88;5.10;;;23.70;49.00;;;;;;7367937;19;20023;-77
2022/06/15 01:56:21;;;;;;;12.65;5.78;;;23.70;49.30;;;;;;7368420;19;20018;-77
2022/06/15 01:58:55;;;;;;;9.52;5.20;;;23.60;49.30;;;;;;7367441;19;20071;-77
2022/06/15 02:01:36;;;;;;;10.10;3.65;;;23.60;49.40;;;;;;7365953;19;20514;-77
2022/06/15 02:04:12;;;;;;;8.13;3.80;;;23.50;49.30;;;;;;7367017;19;20754;-77
2022/06/15 02:06:48;;;;;;;8.60;4.03;;;23.50;49.30;;;;;;7369024;19;20065;-77
2022/06/15 02:09:23;;;;;;;6.25;3.55;;;23.50;49.00;;;;;;7388085;19;20022;-77
2022/06/15 02:11:53;;;;;;;4.30;3.58;;;23.50;48.90;;;;;;7366839;19;20502;-77
2022/06/15 02:14:28;;;;;;;8.63;3.65;;;23.50;49.20;;;;;;7366478;19;20423;-77
2022/06/15 02:17:06;;;;;;;8.55;3.17;;;23.50;49.60;;;;;;7366784;19;20015;-77
2022/06/15 02:19:39;;;;;;;7.63;3.20;;;23.40;49.70;;;;;;7365590;19;20015;-77
2022/06/15 02:22:11;;;;;;;8.77;3.60;;;23.40;49.10;;;;;;7368432;19;20051;-77
2022/06/15 02:24:41;;;;;;;8.45;3.35;;;23.30;49.80;;;;;;7366186;19;20483;-78
2022/06/15 02:27:11;;;;;;;6.97;3.30;;;23.30;49.10;;;;;;7388110;19;20034;-77
2022/06/15 02:29:43;;;;;;;11.05;3.47;;;23.30;49.10;;;;;;7365684;19;20082;-77
2022/06/15 02:32:18;;;;;;;5.70;3.13;;;23.30;48.80;;;;;;7365101;19;20775;-77
2022/06/15 02:34:47;;;;;;;9.60;3.10;;;23.30;48.80;;;;;;7366208;19;20079;-77
2022/06/15 02:37:16;;;;;;;8.98;3.67;;;23.30;49.10;;;;;;7364836;19;20014;-77
2022/06/15 02:39:44;;;;;;;7.50;3.42;;;23.30;49.20;;;;;;7367128;19;20011;-77
2022/06/15 02:42:30;;;;;;;6.70;3.50;;;23.20;49.50;;;;;;7399489;19;20039;-77
2022/06/15 02:45:02;;;;;;;6.28;2.80;;;23.20;49.60;;;;;;7381580;19;20097;-77
2022/06/15 02:47:36;;;;;;;8.32;3.95;;;23.20;49.50;;;;;;7380277;19;20018;-77
2022/06/15 02:50:07;;;;;;;6.50;3.38;;;23.20;49.90;;;;;;7382245;19;20035;-77
2022/06/15 02:52:40;;;;;;;9.73;3.65;;;23.20;50.20;;;;;;7382376;19;20014;-78
2022/06/15 02:55:11;;;;;;;6.43;3.45;;;23.20;49.80;;;;;;7383300;19;20019;-77
2022/06/15 02:57:48;;;;;;;4.13;3.28;;;23.10;49.90;;;;;;7384107;19;20018;-77
2022/06/15 03:00:18;;;;;;;11.73;3.90;;;23.10;50.00;;;;;;7402455;19;20895;-77
2022/06/15 03:02:50;;;;;;;6.32;4.00;;;23.10;50.20;;;;;;7387069;19;20102;-77
2022/06/15 03:05:18;;;;;;;;;;;23.10;50.40;;;;;;7388641;19;20015;-77
2022/06/15 03:07:48;;;;;;;6.85;3.67;;;23.10;50.40;;;;;;7393483;19;19954;-77
2022/06/15 03:10:17;;;;;;;11.55;4.13;;;23.00;50.50;;;;;;7411808;19;20011;-77
2022/06/15 03:12:49;;;;;;;4.97;3.42;;;23.00;50.50;;;;;;7394943;19;20325;-77
2022/06/15 03:15:18;;;;;;;6.28;3.47;;;22.90;51.40;;;;;;7405879;19;20050;-77
2022/06/15 03:17:50;;;;;;;6.40;3.83;;;22.90;50.80;;;;;;7383095;19;20018;-77
2022/06/15 03:20:18;;;;;;;;;;;22.90;50.80;;;;;;7381690;19;20014;-77
2022/06/15 03:22:47;;;;;;;8.35;3.80;;;22.90;50.90;;;;;;7381314;19;19917;-77
2022/06/15 03:25:16;;;;;;;9.60;3.67;;;22.90;50.90;;;;;;7379541;19;20026;-77
2022/06/15 03:27:45;;;;;;;9.73;3.45;;;22.90;50.80;;;;;;7382330;19;20051;-77
2022/06/15 03:30:15;;;;;;;8.57;3.90;;;22.90;50.80;;;;;;7401517;19;20035;-77
2022/06/15 03:32:44;;;;;;;9.43;3.25;;;22.90;50.80;;;;;;7377941;19;20022;-77
2022/06/15 03:35:15;;;;;;;7.07;3.65;;;22.90;50.90;;;;;;7379381;19;20087;-77
2022/06/15 03:37:45;;;;;;;4.88;3.55;;;22.90;51.00;;;;;;7379435;19;20081;-77
2022/06/15 03:40:15;;;;;;;7.15;4.32;;;22.90;51.00;;;;;;7378806;19;20018;-77
2022/06/15 03:42:43;;;;;;;9.30;4.03;;;22.80;51.10;;;;;;7379276;19;20018;-77
2022/06/15 03:45:15;;;;;;;6.75;3.83;;;22.80;51.20;;;;;;7397843;19;20564;-77
2022/06/15 03:47:44;;;;;;;9.13;3.60;;;22.80;51.30;;;;;;7379444;19;20026;-76
2022/06/15 03:50:15;;;;;;;6.65;3.53;;;22.80;51.30;;;;;;7379908;19;20090;-77
2022/06/15 03:52:44;;;;;;;8.98;3.75;;;22.80;51.60;;;;;;7376691;19;20018;-77
2022/06/15 03:55:13;;;;;;;7.75;3.92;;;22.80;51.50;;;;;;7373577;19;20017;-77
2022/06/15 03:57:42;;;;;;;5.22;3.50;;;22.80;51.40;;;;;;7370662;19;20007;-77
2022/06/15 04:00:13;;;;;;;7.03;3.30;;;22.80;51.30;;;;;;7394545;19;20019;-76
2022/06/15 04:02:42;;;;;;;5.22;3.17;;;22.90;51.30;;;;;;7372765;19;20039;-76
2022/06/15 04:05:18;;;;;;;8.40;3.33;;;22.90;51.30;;;;;;7371656;19;20086;-77
2022/06/15 04:10:28;;;;;;;7.45;4.00;;;22.90;51.50;;;;;;7375985;19;20027;-77
2022/06/15 04:12:56;;;;;;;11.45;3.80;;;22.90;51.50;;;;;;7373864;19;20066;-77
2022/06/15 04:15:25;;;;;;;12.98;3.90;;;22.90;51.60;;;;;;7391177;19;20097;-77
2022/06/15 04:17:54;;;;;;;9.27;3.90;;;22.80;51.70;;;;;;7370476;19;20019;-77
2022/06/15 04:20:36;;;;;;;8.30;3.85;;;22.80;51.70;;;;;;7373449;19;20098;-77
2022/06/15 04:23:07;;;;;;;8.13;3.60;;;22.80;51.80;;;;;;7372724;19;20010;-77
2022/06/15 04:25:38;;;;;;;11.05;4.07;;;22.80;51.90;;;;;;7371032;19;20018;-77
2022/06/15 04:28:08;;;;;;;7.03;4.40;;;22.80;51.90;;;;;;7371242;19;20021;-77
2022/06/15 04:30:37;;;;;;;11.35;4.10;;;22.80;52.00;;;;;;7370647;19;20022;-78
2022/06/15 04:33:06;;;;;;;7.60;3.90;;;22.80;52.00;;;;;;7389922;19;20106;-77
2022/06/15 04:35:38;;;;;;;7.40;4.22;;;22.70;52.10;;;;;;7372560;19;20394;-77
2022/06/15 04:38:07;;;;;;;7.93;3.55;;;22.70;52.20;;;;;;7372473;19;20119;-77
2022/06/15 04:40:39;;;;;;;8.18;3.67;;;22.70;52.30;;;;;;7369282;19;20023;-77
2022/06/15 04:43:08;;;;;;;;;;;22.70;52.20;;;;;;7370719;19;20409;-77
2022/06/15 04:45:38;;;;;;;9.52;3.80;;;22.80;52.30;;;;;;7371575;19;19954;-77
2022/06/15 04:48:09;;;;;;;8.75;4.07;;;22.80;52.50;;;;;;7392144;19;20018;-77
2022/06/15 04:50:41;;;;;;;10.25;3.78;;;22.80;52.60;;;;;;7370669;19;20025;-77
2022/06/15 04:53:41;;;;;;;156.63;111.95;;;22.80;52.40;;;;;;7373802;19;20035;-77
2022/06/15 04:56:12;;;;;;;278.67;228.43;;;22.90;52.70;;;;;;7377297;19;20021;-79
2022/06/15 04:58:48;;;;;;;;;;;22.90;52.90;;;;;;7376937;19;20010;-78
2022/06/15 05:01:19;;;;;;;68.68;50.45;;;22.90;52.70;;;;;;7369902;19;19969;-78
2022/06/15 05:06:39;;;;;;;7.32;3.70;;;23.00;52.60;;;;;;7392412;19;19926;-79
2022/06/15 05:09:14;;;;;;;9.70;3.72;;;23.00;52.40;;;;;;7372521;19;20493;-78
2022/06/15 05:11:49;;;;;;;7.72;3.70;;;22.90;52.70;;;;;;7371941;19;20022;-79
2022/06/15 05:14:27;;;;;;;11.18;3.70;;;22.90;52.70;;;;;;7372699;19;20011;-81
2022/06/15 05:16:58;;;;;;;9.38;3.70;;;22.90;53.00;;;;;;7372338;19;20043;-79
2022/06/15 05:19:32;;;;;;;6.35;3.35;;;22.90;53.20;;;;;;7371125;19;20015;-79
2022/06/15 05:24:52;;;;;;;8.38;3.67;;;23.00;53.30;;;;;;7370793;19;20030;-78
2022/06/15 05:27:23;;;;;;;11.50;3.67;;;23.00;53.40;;;;;;7391694;19;20333;-82
2022/06/15 05:30:02;;;;;;;329.50;280.65;;;23.10;53.40;;;;;;7371530;19;20022;-79
2022/06/15 05:32:30;;;;;;;65.47;44.38;;;23.10;53.40;;;;;;7372423;19;20014;-84
2022/06/15 05:35:03;;;;;;;11.18;4.20;;;23.20;53.30;;;;;;7370592;19;20087;-81
2022/06/15 05:37:35;;;;;;;9.90;3.90;;;23.20;54.00;;;;;;7369688;19;20019;-79
2022/06/15 05:40:04;;;;;;;9.00;3.25;;;23.20;53.50;;;;;;7369410;19;20122;-80
2022/06/15 05:42:34;;;;;;;11.05;3.60;;;23.30;53.60;;;;;;7376021;19;20039;-78
2022/06/15 05:45:04;;;;;;;6.90;3.55;;;23.30;53.70;;;;;;7389414;19;20033;-80
2022/06/15 05:47:33;;;;;;;212.75;144.55;;;23.30;53.60;;;;;;7369699;19;20140;-78
2022/06/15 05:50:02;;;;;;;206.98;155.23;;;23.30;53.70;;;;;;7367956;19;20024;-77
2022/06/15 05:52:33;;;;;;;19.63;13.40;;;23.30;53.70;;;;;;7366567;19;20051;-76
2022/06/15 05:55:02;;;;;;;;;;;23.40;53.90;;;;;;7365687;19;20021;-75
2022/06/15 05:57:31;;;;;;;271.85;175.52;;;23.40;53.90;;;;;;7390157;19;19957;-77
2022/06/15 06:00:00;;;;;;;80.70;47.58;;;23.40;53.90;;;;;;7366778;19;20014;-78
2022/06/15 06:02:30;;;;;;;19.83;10.90;;;23.50;54.70;;;;;;7369181;19;20018;-78
2022/06/15 06:04:59;;;;;;;18.75;9.65;;;23.50;53.90;;;;;;7366116;19;20014;-76
2022/06/15 06:07:28;;;;;;;15.27;6.65;;;23.60;53.80;;;;;;7368218;19;21795;-77
2022/06/15 06:09:59;;;;;;;6.90;3.88;;;23.60;53.70;;;;;;7368244;19;20426;-77
2022/06/15 06:12:28;;;;;;;11.57;3.47;;;23.70;53.30;;;;;;7388336;19;20018;-77
2022/06/15 06:14:56;;;;;;;8.90;3.33;;;23.70;53.30;;;;;;7367250;19;20021;-77
2022/06/15 06:17:25;;;;;;;7.47;3.55;;;23.70;53.10;;;;;;7366406;19;20101;-77
2022/06/15 06:19:54;;;;;;;9.38;3.60;;;23.80;53.10;;;;;;7366760;19;20102;-78
2022/06/15 06:22:23;;;;;;;13.18;3.80;;;23.90;53.20;;;;;;7367322;19;20641;-76
2022/06/15 06:24:52;;;;;;;10.73;4.97;;;24.00;52.80;;;;;;7366160;19;20082;-75
2022/06/15 06:27:23;;;;;;;34.42;19.67;;;24.00;52.60;;;;;;7382216;19;20026;-75
2022/06/15 06:29:51;;;;;;;;;;;24.10;52.80;;;;;;7366427;19;20097;-75
2022/06/15 06:32:21;;;;;;;10.93;3.90;;;24.20;52.50;;;;;;7366653;19;19929;-75
2022/06/15 06:34:55;;;;;;;7.43;3.45;;;24.20;51.80;;;;;;7366690;19;20018;-75
2022/06/15 06:37:25;;;;;;;13.63;4.00;;;24.20;51.40;;;;;;7364572;19;20018;-75
2022/06/15 06:39:57;;;;;;;17.65;3.50;;;24.30;51.20;;;;;;7363817;19;20045;-76
2022/06/15 06:42:29;;;;;;;10.93;3.08;;;24.40;51.00;;;;;;7385442;19;20023;-75
2022/06/15 06:44:57;;;;;;;;;;;24.40;50.70;;;;;;7368923;19;20329;-76
2022/06/15 06:47:26;;;;;;;5.88;3.00;;;24.60;50.40;;;;;;7364243;19;19936;-75
2022/06/15 06:49:55;;;;;;;10.55;4.25;;;24.60;50.00;;;;;;7366245;19;20021;-75
2022/06/15 06:52:24;;;;;;;8.38;3.30;;;24.70;49.90;;;;;;7367216;19;20452;-76
2022/06/15 06:54:53;;;;;;;11.25;5.47;;;24.70;49.40;;;;;;7364467;19;20028;-76
2022/06/15 06:57:21;;;;;;;6.03;3.78;;;24.80;48.70;;;;;;7385387;19;20018;-76
2022/06/15 06:59:52;;;;;;;11.85;7.00;;;24.80;48.20;;;;;;7364071;19;20015;-77
2022/06/15 07:02:21;;;;;;;;;;;24.80;48.10;;;;;;7373085;19;20018;-75
2022/06/15 07:04:50;;;;;;;9.02;3.20;;;25.00;48.00;;;;;;7372219;19;19918;-75
2022/06/15 07:07:19;;;;;;;9.48;3.10;;;25.00;48.00;;;;;;7373920;19;20447;-75
2022/06/15 07:09:48;;;;;;;7.07;2.90;;;25.00;47.70;;;;;;7370241;19;20018;-76
2022/06/15 07:12:16;;;;;;;9.80;3.00;;;25.00;47.60;;;;;;7395233;19;20014;-75
2022/06/15 07:14:45;;;;;;;11.55;3.30;;;25.10;47.20;;;;;;7366121;19;20090;-75
2022/06/15 07:17:16;;;;;;;7.32;2.90;;;25.10;46.90;;;;;;7365951;19;20017;-76
2022/06/15 07:19:45;;;;;;;8.23;2.63;;;25.10;46.80;;;;;;7365237;19;20015;-75
2022/06/15 07:22:14;;;;;;;8.02;3.38;;;25.20;46.60;;;;;;7365482;19;20422;-75
2022/06/15 07:24:43;;;;;;;9.40;3.25;;;25.20;46.50;;;;;;7365732;19;20018;-75
2022/06/15 07:27:13;;;;;;;6.15;2.70;;;25.30;46.30;;;;;;7386267;19;20321;-74
2022/06/15 07:29:41;;;;;;;15.40;3.95;;;25.30;46.70;;;;;;7372096;19;20028;-76
2022/06/15 07:32:10;;;;;;;15.15;4.45;;;25.40;46.70;;;;;;7374183;19;20448;-75
2022/06/15 07:34:42;;;;;;;7.80;3.45;;;25.40;46.90;;;;;;7371337;19;20457;-75
2022/06/15 07:37:11;;;;;;;13.25;5.50;;;25.20;46.00;;;;;;7373525;19;20014;-75
2022/06/15 07:39:41;;;;;;;9.80;3.65;;;25.30;46.30;;;;;;7370980;19;20113;-75
2022/06/15 07:42:12;;;;;;;13.50;4.45;;;25.40;46.00;;;;;;7393552;19;20840;-75
2022/06/15 07:44:42;;;;;;;12.27;3.58;;;25.40;46.00;;;;;;7372027;19;20653;-76
2022/06/15 07:49:58;;;;;;;19.08;3.40;;;25.20;47.10;;;;;;7372377;19;20019;-75
2022/06/15 07:52:29;;;;;;;15.98;5.88;;;25.20;46.80;;;;;;7372737;19;20031;-76
2022/06/15 07:54:58;;;;;;;15.20;3.70;;;25.30;46.40;;;;;;7369630;19;20010;-76
2022/06/15 07:57:27;;;;;;;11.50;3.35;;;25.30;47.30;;;;;;7392152;19;20033;-77
2022/06/15 08:00:00;;;;;;;12.95;3.40;;;25.10;45.40;;;;;;7366963;19;20014;-77
2022/06/15 08:02:28;;;;;;;7.05;3.30;;;25.30;45.90;;;;;;7372780;19;20429;-77
2022/06/15 08:05:03;;;;;;;7.72;3.10;;;25.40;46.20;;;;;;7370349;19;20121;-77
2022/06/15 08:07:32;;;;;;;16.48;3.17;;;25.30;45.40;;;;;;7371567;19;20023;-77
2022/06/15 08:10:01;;;;;;;15.45;3.30;;;25.50;45.20;;;;;;7369694;19;20108;-76
2022/06/15 08:12:30;;;;;;;13.00;3.50;;;25.40;45.10;;;;;;7390933;19;20010;-75
2022/06/15 08:15:02;;;;;;;13.20;3.25;;;25.50;45.20;;;;;;7372065;19;20730;-77
2022/06/15 08:17:34;;;;;;;14.82;3.53;;;25.40;44.70;;;;;;7366605;19;20047;-75
2022/06/15 08:20:10;;;;;;;11.80;3.65;;;25.50;44.60;;;;;;7370524;19;20043;-77
2022/06/15 08:22:44;;;;;;;13.10;5.57;;;25.30;44.00;;;;;;7370043;19;20015;-75
2022/06/15 08:25:17;;;;;;;23.45;3.47;;;25.40;44.50;;;;;;7369692;19;20006;-75
2022/06/15 08:27:47;;;;;;;14.50;3.58;;;25.50;44.40;;;;;;7370221;19;20018;-75
2022/06/15 08:30:18;;;;;;;13.50;3.60;;;25.60;44.40;;;;;;7392506;19;20325;-75
2022/06/15 08:32:48;;;;;;;14.75;3.28;;;25.40;44.10;;;;;;7369476;19;20018;-75
2022/06/15 08:35:19;;;;;;;9.55;2.90;;;25.40;43.80;;;;;;7369260;19;20448;-76
2022/06/15 08:37:48;;;;;;;9.70;3.28;;;25.50;44.00;;;;;;7367655;19;20018;-76
2022/06/15 08:40:18;;;;;;;9.60;3.03;;;25.60;44.10;;;;;;7367669;19;20021;-76
2022/06/15 08:42:56;;;;;;;15.48;3.17;;;25.70;43.80;;;;;;7369190;19;20508;-76
2022/06/15 08:45:31;;;;;;;9.02;3.55;;;25.80;43.80;;;;;;7389642;19;20010;-76
2022/06/15 08:48:20;;;;;;;7.85;3.20;;;25.70;43.40;;;;;;7369109;19;20355;-76
2022/06/15 08:51:00;;;;;;;8.48;3.20;;;25.80;43.10;;;;;;7367355;19;20498;-76
2022/06/15 08:53:36;;;;;;;8.10;3.30;;;25.80;43.60;;;;;;7366856;19;20014;-76
2022/06/15 08:56:10;;;;;;;13.18;3.55;;;25.90;43.10;;;;;;7364930;19;20024;-76
2022/06/15 08:58:47;;;;;;;13.27;3.42;;;26.00;43.30;;;;;;7369320;19;20951;-75
2022/06/15 09:01:29;;;;;;;12.38;3.10;;;26.00;43.40;;;;;;7371075;19;20029;-76
2022/06/15 09:04:05;;;;;;;13.65;3.45;;;26.10;43.50;;;;;;7368477;19;20811;-76
2022/06/15 09:06:49;;;;;;;8.40;3.00;;;26.10;42.70;;;;;;7370592;19;20019;-76
2022/06/15 09:09:30;;;;;;;6.82;3.20;;;26.00;42.80;;;;;;7388223;19;20022;-76
2022/06/15 09:15:02;;;;;;;8.50;2.80;;;25.90;43.10;;;;;;7367141;19;20021;-76
2022/06/15 09:17:33;;;;;;;12.38;3.28;;;26.00;43.70;;;;;;7369417;19;20035;-76
2022/06/15 09:20:06;;;;;;;9.00;3.27;;;26.10;43.40;;;;;;7367194;19;20015;-76
2022/06/15 09:22:42;;;;;;;10.75;2.97;;;26.20;43.00;;;;;;7366660;19;20010;-76
2022/06/15 09:25:20;;;;;;;13.63;3.63;;;26.20;42.30;;;;;;7367855;19;20026;-76
2022/06/15 09:27:54;;;;;;;12.90;3.83;;;26.20;42.60;;;;;;7369302;19;20025;-76
2022/06/15 09:30:27;;;;;;;37.70;19.10;;;26.10;42.20;;;;;;7387903;19;20017;-77
2022/06/15 09:33:01;;;;;;;11.73;3.70;;;26.20;42.80;;;;;;7367687;19;20013;-78
2022/06/15 09:35:35;;;;;;;8.82;3.38;;;26.10;42.30;;;;;;7368048;19;20011;-76
2022/06/15 09:38:13;;;;;;;8.20;3.53;;;26.20;42.50;;;;;;7366208;19;20078;-77
2022/06/15 09:40:48;;;;;;;12.68;3.25;;;26.20;43.00;;;;;;7365800;19;20022;-76
2022/06/15 09:43:29;;;;;;;14.85;3.05;;;26.20;43.70;;;;;;7365259;19;20129;-76
2022/06/15 09:46:08;;;;;;;8.38;3.03;;;26.30;42.90;;;;;;7365900;19;20022;-76
2022/06/15 09:48:47;;;;;;;8.20;2.78;;;26.40;42.80;;;;;;7364836;19;20027;-76
2022/06/15 09:51:24;;;;;;;14.27;3.15;;;26.50;43.10;;;;;;7383862;19;20019;-76
2022/06/15 09:54:04;;;;;;;10.57;3.03;;;26.50;42.30;;;;;;7364084;19;20061;-76
2022/06/15 09:56:34;;;;;;;10.82;3.30;;;26.50;42.50;;;;;;7366275;19;20587;-77
2022/06/15 09:59:09;;;;;;;11.45;2.90;;;26.60;42.20;;;;;;7366043;19;20089;-77
2022/06/15 10:01:41;;;;;;;10.35;2.80;;;26.60;42.00;;;;;;7365613;19;20595;-77
2022/06/15 10:04:18;;;;;;;9.98;2.80;;;26.70;42.20;;;;;;7366343;19;20018;-76
2022/06/15 10:06:51;;;;;;;11.48;3.63;;;26.80;42.40;;;;;;7366142;19;20026;-77
2022/06/15 10:09:27;;;;;;;9.95;3.55;;;26.90;41.00;;;;;;7387131;19;20018;-77
2022/06/15 10:12:55;;;;;;;13.70;2.63;;;26.90;41.40;;;;;;7366207;19;20718;-77
2022/06/15 10:14:51;;;;;;;10.90;3.23;;;26.90;41.30;;;;;;7364237;19;20042;-77
2022/06/15 10:17:25;;;;;;;9.77;3.03;;;27.00;40.50;;;;;;7367251;19;20018;-77
2022/06/15 10:19:56;;;;;;;9.88;3.15;;;27.00;40.50;;;;;;7372170;19;20019;-77
2022/06/15 10:22:29;;;;;;;10.63;3.22;;;27.00;40.40;;;;;;7372516;19;20126;-77
2022/06/15 10:25:04;;;;;;;7.53;3.05;;;27.00;40.30;;;;;;7366080;19;20018;-77
2022/06/15 10:27:36;;;;;;;7.47;2.65;;;26.80;41.20;;;;;;7378573;19;20466;-77
2022/06/15 10:30:19;;;;;;;10.52;3.28;;;26.80;40.40;;;;;;7389766;19;20022;-77
2022/06/15 10:33:02;;;;;;;8.68;2.80;;;26.90;40.30;;;;;;7363254;19;20014;-77
2022/06/15 10:35:33;;;;;;;9.27;3.05;;;27.00;40.50;;;;;;7364348;19;20021;-77
2022/06/15 10:38:05;;;;;;;11.93;3.40;;;27.00;41.10;;;;;;7366726;19;20043;-77
2022/06/15 10:40:39;;;;;;;10.75;3.03;;;27.10;40.90;;;;;;7364685;19;20497;-76
2022/06/15 10:43:09;;;;;;;8.70;3.42;;;27.10;41.50;;;;;;7365570;19;20048;-77
2022/06/15 10:45:42;;;;;;;6.88;3.60;;;27.20;41.30;;;;;;7366481;19;20826;-77
2022/06/15 10:48:17;;;;;;;9.32;3.40;;;27.30;40.50;;;;;;7391956;19;20027;-77
2022/06/15 10:50:54;;;;;;;11.40;3.78;;;27.40;40.00;;;;;;7369539;19;20493;-76
2022/06/15 10:53:33;;;;;;;15.82;5.20;;;27.50;39.70;;;;;;7376344;19;20018;-77
2022/06/15 11:04:28;;;;;;;8.40;3.40;;;27.70;39.60;;;;;;7381554;19;20015;-77
2022/06/15 11:07:05;;;;;;;16.42;3.28;;;27.70;40.20;;;;;;7375273;19;20018;-76
2022/06/15 11:09:38;;;;;;;14.65;4.45;;;27.70;40.30;;;;;;7379483;19;20026;-75
2022/06/15 11:12:25;;;;;;;7.75;3.17;;;27.80;39.50;;;;;;7398332;19;20019;-77
2022/06/15 11:14:58;;;;;;;7.30;2.97;;;27.80;39.80;;;;;;7373498;19;20063;-79
2022/06/15 11:20:26;;;;;;;10.05;3.88;;;28.00;39.40;;;;;;7373017;19;20271;-76
2022/06/15 11:23:02;;;;;;;4.03;2.95;;;28.20;38.70;;;;;;7372450;19;20020;-74
2022/06/15 11:25:41;;;;;;;9.10;3.63;;;28.20;38.30;;;;;;7368976;19;20022;-74
2022/06/15 11:28:19;;;;;;;7.47;4.82;;;28.40;38.60;;;;;;7369604;19;20023;-74
2022/06/15 11:30:58;;;;;;;9.10;3.25;;;28.40;37.30;;;;;;7367231;19;20061;-77
2022/06/15 11:33:36;;;;;;;10.43;6.32;;;28.50;37.10;;;;;;7388003;19;20765;-75
2022/06/15 11:36:14;;;;;;;8.18;3.30;;;28.50;37.50;;;;;;7368324;19;20420;-75
2022/06/15 11:38:50;;;;;;;8.55;2.88;;;28.60;37.20;;;;;;7372539;19;20035;-75
2022/06/15 11:41:26;;;;;;;15.05;3.08;;;28.60;36.60;;;;;;7369488;19;20018;-74
2022/06/15 11:43:59;;;;;;;6.32;2.95;;;28.70;37.50;;;;;;7369483;19;20133;-75
2022/06/15 11:46:45;;;;;;;14.40;3.20;;;28.70;37.50;;;;;;7370179;19;20058;-75
2022/06/15 11:49:23;;;;;;;5.80;3.00;;;28.80;37.10;;;;;;7369842;19;20018;-75
2022/06/15 11:52:30;;;;;;;5.72;2.90;;;28.80;37.30;;;;;;7367214;19;20023;-76
2022/06/15 11:55:09;;;;;;;12.25;2.88;;;28.90;36.70;;;;;;7371363;19;20011;-75
2022/06/15 11:57:50;;;;;;;8.13;2.72;;;28.90;36.90;;;;;;7370987;19;20010;-76
2022/06/15 12:00:31;;;;;;;6.18;2.70;;;28.90;36.40;;;;;;7389055;19;20109;-75
2022/06/15 12:03:27;;;;;;;5.00;2.60;;;29.00;35.00;;;;;;7369040;19;20010;-75
2022/06/15 12:06:04;;;;;;;9.95;3.88;;;29.00;34.40;;;;;;7370935;19;20010;-75
2022/06/15 12:08:49;;;;;;;7.28;3.58;;;29.10;35.60;;;;;;7369756;19;20119;-75
2022/06/15 12:14:13;;;;;;;5.47;2.40;;;29.20;34.00;;;;;;7370163;19;20103;-75
2022/06/15 12:16:48;;;;;;;5.65;2.80;;;29.30;33.00;;;;;;7365585;19;20469;-75
2022/06/15 12:19:25;;;;;;;6.20;2.58;;;29.30;32.70;;;;;;7370933;19;20018;-75
2022/06/15 12:21:59;;;;;;;7.78;2.30;;;29.30;32.70;;;;;;7371027;19;20023;-76
2022/06/15 12:24:32;;;;;;;10.25;2.90;;;29.40;34.30;;;;;;7391154;19;20521;-76
2022/06/15 12:27:09;;;;;;;7.47;3.33;;;29.50;35.20;;;;;;7372098;19;20014;-75
2022/06/15 12:29:48;;;;;;;6.78;2.80;;;29.50;34.70;;;;;;7369704;19;20010;-75
2022/06/15 12:32:38;;;;;;;6.22;2.80;;;29.60;34.90;;;;;;7372261;19;20015;-75
2022/06/15 12:35:20;;;;;;;14.20;3.03;;;29.70;35.70;;;;;;7371117;19;20047;-75
2022/06/15 12:37:56;;;;;;;6.70;2.85;;;29.70;35.50;;;;;;7370986;19;20457;-75
2022/06/15 12:40:32;;;;;;;7.63;3.35;;;29.80;36.10;;;;;;7368949;19;20023;-75
2022/06/15 12:43:13;;;;;;;9.50;3.22;;;29.90;35.80;;;;;;7372317;19;20023;-75
2022/06/15 12:45:46;;;;;;;6.45;3.03;;;29.90;36.80;;;;;;7367129;19;20021;-75
2022/06/15 12:48:27;;;;;;;8.30;2.80;;;30.00;36.80;;;;;;7393174;19;20493;-75
2022/06/15 12:51:02;;;;;;;12.38;3.83;;;30.00;35.00;;;;;;7369822;19;20023;-75
2022/06/15 12:53:41;;;;;;;6.13;3.25;;;30.10;35.00;;;;;;7372900;19;20050;-76
2022/06/15 12:56:30;;;;;;;9.25;3.03;;;30.10;35.00;;;;;;7372921;19;20011;-75
2022/06/15 12:59:07;;;;;;;6.78;2.90;;;30.00;35.10;;;;;;7371172;19;20058;-75
2022/06/15 13:01:43;;;;;;;7.35;3.33;;;30.00;35.20;;;;;;7371273;19;20010;-75
2022/06/15 13:04:25;;;;;;;10.75;3.65;;;30.00;35.20;;;;;;7371476;19;20035;-75
2022/06/15 13:07:23;;;;;;;10.15;3.28;;;30.00;35.40;;;;;;7369859;19;20769;-75
2022/06/15 13:10:18;;;;;;;7.40;3.30;;;30.00;35.00;;;;;;7369004;19;20023;-75
2022/06/15 13:12:52;;;;;;;10.38;3.53;;;29.90;35.70;;;;;;7373287;19;20015;-75
2022/06/15 13:15:56;;;;;;;7.15;3.17;;;29.90;35.10;;;;;;7393788;19;20034;-75
2022/06/15 13:18:46;;;;;;;7.65;3.20;;;30.00;35.70;;;;;;7371643;19;20040;-75
2022/06/15 13:21:19;;;;;;;6.60;3.30;;;30.20;34.40;;;;;;7369561;19;20045;-75
2022/06/15 13:23:51;;;;;;;17.13;3.42;;;30.20;34.80;;;;;;7369231;19;20043;-75
2022/06/15 13:26:27;;;;;;;11.05;3.35;;;30.10;35.10;;;;;;7370417;19;20025;-75
2022/06/15 13:29:24;;;;;;;35.47;24.20;;;30.20;35.00;;;;;;7368292;19;20018;-76
2022/06/15 13:31:57;;;;;;;20.25;12.98;;;30.10;35.60;;;;;;7365946;19;20018;-76
2022/06/15 13:34:50;;;;;;;21.80;11.70;;;30.30;36.50;;;;;;7366932;19;20173;-76
2022/06/15 13:37:35;;;;;;;10.65;3.50;;;30.50;36.50;;;;;;7356199;19;20438;-75
2022/06/15 13:40:07;;;;;;;5.85;3.60;;;30.70;35.20;;;;;;7366225;19;20021;-76
2022/06/15 13:42:40;;;;;;;7.20;2.70;;;30.80;34.60;;;;;;7365499;19;20015;-75
2022/06/15 13:45:14;;;;;;;12.00;3.35;;;30.90;34.10;;;;;;7386758;19;20489;-75
2022/06/15 13:47:51;;;;;;;14.45;3.35;;;31.00;34.70;;;;;;7364977;19;20018;-75
2022/06/15 13:50:27;;;;;;;9.10;3.10;;;31.10;34.70;;;;;;7362428;19;20446;-75